sensor_id;sensor_type;location;lat;lon;timestamp;pressure;altitude;pressure_sealevel;temperature;humidity
64388;BME280;50709;52.648;4.764;2023-01-16T00:00:00;99507.91;;;9.49;70.69
64388;BME280;50709;52.648;4.764;2023-01-16T00:02:26;99487.13;;;9.44;71.42
64388;BME280;50709;52.648;4.764;2023-01-16T00:04:51;99503.59;;;9.48;72.17
64388;BME280;50709;52.648;4.764;2023-01-16T00:07:17;99501.22;;;9.88;71.93
64388;BME280;50709;52.648;4.764;2023-01-16T00:09:42;99515.91;;;9.94;71.60
64388;BME280;50709;52.648;4.764;2023-01-16T00:12:08;99501.34;;;9.81;72.02
64388;BME280;50709;52.648;4.764;2023-01-16T00:14:34;99484.91;;;9.75;71.91
64388;BME280;50709;52.648;4.764;2023-01-16T00:17:00;99493.44;;;9.84;70.22
64388;BME280;50709;52.648;4.764;2023-01-16T00:19:25;99475.66;;;9.56;71.70
64388;BME280;50709;52.648;4.764;2023-01-16T00:21:51;99473.94;;;9.55;72.28
64388;BME280;50709;52.648;4.764;2023-01-16T00:24:16;99472.81;;;9.71;72.23
64388;BME280;50709;52.648;4.764;2023-01-16T00:26:41;99474.22;;;9.91;71.88
64388;BME280;50709;52.648;4.764;2023-01-16T00:29:08;99414.59;;;9.18;72.31
64388;BME280;50709;52.648;4.764;2023-01-16T00:31:33;99454.09;;;9.45;71.11
64388;BME280;50709;52.648;4.764;2023-01-16T00:33:59;99435.09;;;9.39;72.66
64388;BME280;50709;52.648;4.764;2023-01-16T00:36:24;99442.91;;;9.41;71.19
64388;BME280;50709;52.648;4.764;2023-01-16T00:38:50;99442.91;;;9.41;72.95
64388;BME280;50709;52.648;4.764;2023-01-16T00:41:15;99439.88;;;9.11;71.13
64388;BME280;50709;52.648;4.764;2023-01-16T00:43:41;99416.22;;;9.25;71.58
64388;BME280;50709;52.648;4.764;2023-01-16T00:46:06;99439.25;;;9.50;72.65
64388;BME280;50709;52.648;4.764;2023-01-16T00:48:32;99413.50;;;9.30;71.97
64388;BME280;50709;52.648;4.764;2023-01-16T00:50:57;99413.06;;;9.01;73.78
64388;BME280;50709;52.648;4.764;2023-01-16T00:53:23;99418.06;;;9.17;72.65
64388;BME280;50709;52.648;4.764;2023-01-16T00:55:50;99422.94;;;9.38;73.11
64388;BME280;50709;52.648;4.764;2023-01-16T00:58:16;99402.72;;;9.54;73.66
64388;BME280;50709;52.648;4.764;2023-01-16T01:00:41;99398.97;;;9.71;72.60
64388;BME280;50709;52.648;4.764;2023-01-16T01:03:07;99393.06;;;9.61;73.35
64388;BME280;50709;52.648;4.764;2023-01-16T01:05:37;99383.44;;;9.63;72.48
64388;BME280;50709;52.648;4.764;2023-01-16T01:08:04;99376.50;;;9.64;72.53
64388;BME280;50709;52.648;4.764;2023-01-16T01:10:29;99381.63;;;9.68;72.90
64388;BME280;50709;52.648;4.764;2023-01-16T01:12:55;99383.38;;;9.66;71.87
64388;BME280;50709;52.648;4.764;2023-01-16T01:15:21;99380.25;;;9.46;72.25
64388;BME280;50709;52.648;4.764;2023-01-16T01:17:48;99369.22;;;9.30;72.63
64388;BME280;50709;52.648;4.764;2023-01-16T01:20:13;99370.72;;;9.45;73.82
64388;BME280;50709;52.648;4.764;2023-01-16T01:22:39;99384.09;;;9.24;74.23
64388;BME280;50709;52.648;4.764;2023-01-16T01:25:05;99364.97;;;9.24;72.93
64388;BME280;50709;52.648;4.764;2023-01-16T01:27:30;99374.69;;;9.67;73.43
64388;BME280;50709;52.648;4.764;2023-01-16T01:30:16;99311.69;;;9.43;72.54
64388;BME280;50709;52.648;4.764;2023-01-16T01:32:41;99350.50;;;9.59;74.20
64388;BME280;50709;52.648;4.764;2023-01-16T01:35:08;99262.56;;;9.22;72.36
64388;BME280;50709;52.648;4.764;2023-01-16T01:37:34;99337.63;;;9.50;72.89
64388;BME280;50709;52.648;4.764;2023-01-16T01:40:00;99339.81;;;9.23;73.34
64388;BME280;50709;52.648;4.764;2023-01-16T01:42:26;99321.69;;;9.17;73.83
64388;BME280;50709;52.648;4.764;2023-01-16T01:45:19;99314.81;;;9.13;74.71
64388;BME280;50709;52.648;4.764;2023-01-16T01:50:50;99314.59;;;9.26;74.00
64388;BME280;50709;52.648;4.764;2023-01-16T01:54:01;99319.75;;;8.73;72.82
64388;BME280;50709;52.648;4.764;2023-01-16T01:56:53;99300.47;;;8.87;74.54
64388;BME280;50709;52.648;4.764;2023-01-16T01:59:03;99294.75;;;8.63;74.63
64388;BME280;50709;52.648;4.764;2023-01-16T02:01:32;99290.75;;;8.97;74.57
64388;BME280;50709;52.648;4.764;2023-01-16T02:04:04;99272.44;;;9.01;74.95
64388;BME280;50709;52.648;4.764;2023-01-16T02:06:40;99298.28;;;9.14;72.95
64388;BME280;50709;52.648;4.764;2023-01-16T02:09:08;99294.38;;;8.86;74.26
64388;BME280;50709;52.648;4.764;2023-01-16T02:11:37;99277.97;;;8.83;73.22
64388;BME280;50709;52.648;4.764;2023-01-16T02:14:13;99288.41;;;9.34;73.74
64388;BME280;50709;52.648;4.764;2023-01-16T02:16:40;99294.75;;;9.19;73.29
64388;BME280;50709;52.648;4.764;2023-01-16T02:43:56;99221.84;;;8.65;74.35
64388;BME280;50709;52.648;4.764;2023-01-16T02:46:34;99223.03;;;8.44;75.38
64388;BME280;50709;52.648;4.764;2023-01-16T02:52:12;99225.75;;;8.90;74.44
64388;BME280;50709;52.648;4.764;2023-01-16T02:54:59;99209.50;;;8.78;74.41
64388;BME280;50709;52.648;4.764;2023-01-16T02:57:36;99198.97;;;8.84;75.14
64388;BME280;50709;52.648;4.764;2023-01-16T03:00:06;99179.97;;;8.80;73.99
64388;BME280;50709;52.648;4.764;2023-01-16T03:02:32;99206.56;;;8.98;73.72
64388;BME280;50709;52.648;4.764;2023-01-16T03:04:57;99210.88;;;9.00;74.80
64388;BME280;50709;52.648;4.764;2023-01-16T03:10:50;99217.47;;;8.68;74.41
64388;BME280;50709;52.648;4.764;2023-01-16T03:13:49;99207.69;;;8.83;75.03
64388;BME280;50709;52.648;4.764;2023-01-16T03:22:12;99188.91;;;8.64;72.74
64388;BME280;50709;52.648;4.764;2023-01-16T03:27:42;99173.09;;;8.76;75.34
64388;BME280;50709;52.648;4.764;2023-01-16T03:30:11;99171.56;;;8.64;75.12
64388;BME280;50709;52.648;4.764;2023-01-16T03:32:45;99150.78;;;8.61;74.33
64388;BME280;50709;52.648;4.764;2023-01-16T03:35:44;99147.53;;;8.48;74.81
64388;BME280;50709;52.648;4.764;2023-01-16T03:38:09;99115.13;;;8.66;75.21
64388;BME280;50709;52.648;4.764;2023-01-16T03:40:42;99114.84;;;8.29;75.22
64388;BME280;50709;52.648;4.764;2023-01-16T03:43:18;99113.53;;;8.59;75.08
64388;BME280;50709;52.648;4.764;2023-01-16T03:45:47;99064.72;;;8.19;75.51
64388;BME280;50709;52.648;4.764;2023-01-16T03:48:22;99076.59;;;8.35;75.51
64388;BME280;50709;52.648;4.764;2023-01-16T03:50:52;99076.44;;;8.45;76.30
64388;BME280;50709;52.648;4.764;2023-01-16T03:53:25;99062.66;;;7.86;76.51
64388;BME280;50709;52.648;4.764;2023-01-16T03:56:11;99070.47;;;7.85;75.30
64388;BME280;50709;52.648;4.764;2023-01-16T03:58:41;99071.28;;;7.90;75.60
64388;BME280;50709;52.648;4.764;2023-01-16T04:01:13;99070.41;;;7.88;76.39
64388;BME280;50709;52.648;4.764;2023-01-16T04:03:54;99033.25;;;7.84;77.41
64388;BME280;50709;52.648;4.764;2023-01-16T04:06:38;99069.53;;;7.90;76.50
64388;BME280;50709;52.648;4.764;2023-01-16T04:09:19;99053.72;;;8.03;76.94
64388;BME280;50709;52.648;4.764;2023-01-16T04:11:49;99051.91;;;7.52;77.46
64388;BME280;50709;52.648;4.764;2023-01-16T04:14:16;99052.19;;;7.89;76.95
64388;BME280;50709;52.648;4.764;2023-01-16T04:16:44;99057.88;;;7.58;78.01
64388;BME280;50709;52.648;4.764;2023-01-16T04:19:12;99025.25;;;7.39;77.76
64388;BME280;50709;52.648;4.764;2023-01-16T04:21:42;99039.44;;;7.75;77.11
64388;BME280;50709;52.648;4.764;2023-01-16T04:24:08;99011.16;;;7.55;77.71
64388;BME280;50709;52.648;4.764;2023-01-16T04:26:33;99023.88;;;7.74;76.94
64388;BME280;50709;52.648;4.764;2023-01-16T04:28:59;99026.25;;;7.30;76.50
64388;BME280;50709;52.648;4.764;2023-01-16T04:31:25;98984.59;;;7.36;77.45
64388;BME280;50709;52.648;4.764;2023-01-16T04:33:52;99003.19;;;7.66;77.45
64388;BME280;50709;52.648;4.764;2023-01-16T04:36:18;98998.88;;;7.04;76.35
64388;BME280;50709;52.648;4.764;2023-01-16T04:38:43;98992.63;;;7.18;77.58
64388;BME280;50709;52.648;4.764;2023-01-16T04:41:09;98995.84;;;7.37;78.15
64388;BME280;50709;52.648;4.764;2023-01-16T04:43:34;98969.16;;;7.26;76.52
64388;BME280;50709;52.648;4.764;2023-01-16T04:46:00;98965.63;;;7.31;77.47
64388;BME280;50709;52.648;4.764;2023-01-16T04:48:25;98971.16;;;7.06;76.61
64388;BME280;50709;52.648;4.764;2023-01-16T04:50:51;98961.47;;;7.18;76.23
64388;BME280;50709;52.648;4.764;2023-01-16T04:53:16;98946.56;;;6.68;76.12
64388;BME280;50709;52.648;4.764;2023-01-16T04:55:43;98935.03;;;6.93;77.87
64388;BME280;50709;52.648;4.764;2023-01-16T04:58:08;98933.94;;;6.40;76.24
64388;BME280;50709;52.648;4.764;2023-01-16T05:00:34;98934.88;;;7.03;77.93
64388;BME280;50709;52.648;4.764;2023-01-16T05:02:59;98906.09;;;6.55;76.41
64388;BME280;50709;52.648;4.764;2023-01-16T05:05:25;98913.38;;;6.95;76.03
64388;BME280;50709;52.648;4.764;2023-01-16T05:07:50;98911.41;;;7.10;76.63
64388;BME280;50709;52.648;4.764;2023-01-16T05:10:36;98889.13;;;6.95;75.47
64388;BME280;50709;52.648;4.764;2023-01-16T05:13:24;98889.44;;;7.32;76.33
64388;BME280;50709;52.648;4.764;2023-01-16T05:15:50;98885.56;;;7.56;77.59
64388;BME280;50709;52.648;4.764;2023-01-16T05:18:15;98872.69;;;7.52;76.53
64388;BME280;50709;52.648;4.764;2023-01-16T05:20:40;98872.41;;;7.14;75.00
64388;BME280;50709;52.648;4.764;2023-01-16T05:23:06;98824.41;;;6.84;75.12
64388;BME280;50709;52.648;4.764;2023-01-16T05:25:34;98859.69;;;7.52;75.16
64388;BME280;50709;52.648;4.764;2023-01-16T05:27:59;98815.19;;;7.20;75.79
64388;BME280;50709;52.648;4.764;2023-01-16T05:30:25;98838.03;;;7.00;75.38
64388;BME280;50709;52.648;4.764;2023-01-16T05:32:50;98801.22;;;6.73;76.15
64388;BME280;50709;52.648;4.764;2023-01-16T05:35:15;98843.34;;;7.45;77.06
64388;BME280;50709;52.648;4.764;2023-01-16T05:37:42;98833.38;;;7.19;77.27
64388;BME280;50709;52.648;4.764;2023-01-16T05:40:28;98815.34;;;6.55;77.19
64388;BME280;50709;52.648;4.764;2023-01-16T05:42:53;98827.84;;;6.86;77.31
64388;BME280;50709;52.648;4.764;2023-01-16T05:45:19;98793.84;;;6.47;77.80
64388;BME280;50709;52.648;4.764;2023-01-16T05:47:44;98809.66;;;6.87;76.90
64388;BME280;50709;52.648;4.764;2023-01-16T05:50:10;98810.31;;;7.02;76.81
64388;BME280;50709;52.648;4.764;2023-01-16T05:52:35;98798.22;;;7.51;76.48
64388;BME280;50709;52.648;4.764;2023-01-16T05:55:00;98785.34;;;6.93;75.23
64388;BME280;50709;52.648;4.764;2023-01-16T05:57:26;98773.22;;;6.94;76.16
64388;BME280;50709;52.648;4.764;2023-01-16T05:59:52;98772.69;;;7.28;75.23
64388;BME280;50709;52.648;4.764;2023-01-16T06:02:19;98768.69;;;7.06;75.77
64388;BME280;50709;52.648;4.764;2023-01-16T06:04:45;98748.75;;;6.55;75.22
64388;BME280;50709;52.648;4.764;2023-01-16T06:07:11;98752.66;;;6.81;75.43
64388;BME280;50709;52.648;4.764;2023-01-16T06:09:37;98739.72;;;6.80;76.30
64388;BME280;50709;52.648;4.764;2023-01-16T06:12:03;98736.16;;;6.85;77.32
64388;BME280;50709;52.648;4.764;2023-01-16T06:14:28;98707.31;;;7.04;77.34
64388;BME280;50709;52.648;4.764;2023-01-16T06:16:54;98729.09;;;7.42;78.94
64388;BME280;50709;52.648;4.764;2023-01-16T06:19:19;98710.53;;;7.62;78.79
64388;BME280;50709;52.648;4.764;2023-01-16T06:21:45;98726.88;;;7.69;75.35
64388;BME280;50709;52.648;4.764;2023-01-16T06:24:10;98693.72;;;8.21;73.61
64388;BME280;50709;52.648;4.764;2023-01-16T06:26:36;98675.81;;;8.45;74.23
64388;BME280;50709;52.648;4.764;2023-01-16T06:29:02;98690.63;;;8.03;74.03
64388;BME280;50709;52.648;4.764;2023-01-16T06:31:27;98674.44;;;7.90;74.32
64388;BME280;50709;52.648;4.764;2023-01-16T06:33:53;98677.91;;;7.91;72.93
64388;BME280;50709;52.648;4.764;2023-01-16T06:36:18;98633.25;;;8.13;74.48
64388;BME280;50709;52.648;4.764;2023-01-16T06:38:44;98659.75;;;9.62;72.35
64388;BME280;50709;52.648;4.764;2023-01-16T06:41:09;98661.06;;;8.47;71.73
64388;BME280;50709;52.648;4.764;2023-01-16T06:43:35;98662.31;;;9.01;71.51
64388;BME280;50709;52.648;4.764;2023-01-16T06:46:01;98663.38;;;9.56;71.22
64388;BME280;50709;52.648;4.764;2023-01-16T06:48:26;98647.94;;;9.19;73.09
64388;BME280;50709;52.648;4.764;2023-01-16T06:50:52;98640.78;;;8.94;71.94
64388;BME280;50709;52.648;4.764;2023-01-16T06:53:18;98647.25;;;8.05;71.51
64388;BME280;50709;52.648;4.764;2023-01-16T06:55:44;98564.81;;;8.11;72.28
64388;BME280;50709;52.648;4.764;2023-01-16T06:58:09;98589.50;;;8.65;73.45
64388;BME280;50709;52.648;4.764;2023-01-16T07:00:35;98616.78;;;9.16;73.64
64388;BME280;50709;52.648;4.764;2023-01-16T07:03:02;98629.78;;;8.50;73.97
64388;BME280;50709;52.648;4.764;2023-01-16T07:05:29;98613.81;;;8.64;73.06
64388;BME280;50709;52.648;4.764;2023-01-16T07:07:55;98590.31;;;8.31;73.97
64388;BME280;50709;52.648;4.764;2023-01-16T07:10:21;98611.72;;;8.06;74.72
64388;BME280;50709;52.648;4.764;2023-01-16T07:12:47;98597.72;;;7.74;72.21
64388;BME280;50709;52.648;4.764;2023-01-16T07:15:15;98576.44;;;7.56;72.95
64388;BME280;50709;52.648;4.764;2023-01-16T07:17:59;98610.81;;;8.43;74.77
64388;BME280;50709;52.648;4.764;2023-01-16T07:20:52;98544.91;;;7.72;73.79
64388;BME280;50709;52.648;4.764;2023-01-16T07:23:40;98579.94;;;7.93;72.11
64388;BME280;50709;52.648;4.764;2023-01-16T07:26:07;98586.88;;;8.30;73.52
64388;BME280;50709;52.648;4.764;2023-01-16T07:28:34;98591.34;;;8.61;76.10
64388;BME280;50709;52.648;4.764;2023-01-16T07:31:01;98580.16;;;7.84;74.14
64388;BME280;50709;52.648;4.764;2023-01-16T07:33:29;98567.09;;;8.23;76.23
64388;BME280;50709;52.648;4.764;2023-01-16T07:35:54;98555.34;;;7.70;75.10
64388;BME280;50709;52.648;4.764;2023-01-16T07:38:20;98523.03;;;7.45;74.99
64388;BME280;50709;52.648;4.764;2023-01-16T07:40:45;98561.69;;;7.58;76.17
64388;BME280;50709;52.648;4.764;2023-01-16T07:43:11;98548.88;;;7.10;76.45
64388;BME280;50709;52.648;4.764;2023-01-16T07:45:36;98539.06;;;7.23;76.81
64388;BME280;50709;52.648;4.764;2023-01-16T07:48:02;98545.72;;;7.36;77.13
64388;BME280;50709;52.648;4.764;2023-01-16T07:50:28;98537.53;;;7.93;76.92
64388;BME280;50709;52.648;4.764;2023-01-16T07:52:53;98530.13;;;7.75;77.02
64388;BME280;50709;52.648;4.764;2023-01-16T07:55:20;98513.78;;;7.70;75.76
64388;BME280;50709;52.648;4.764;2023-01-16T07:57:45;98529.84;;;7.10;75.58
64388;BME280;50709;52.648;4.764;2023-01-16T08:00:11;98506.91;;;7.30;77.91
64388;BME280;50709;52.648;4.764;2023-01-16T08:02:38;98528.19;;;7.48;78.15
64388;BME280;50709;52.648;4.764;2023-01-16T08:05:04;98508.22;;;6.67;76.43
64388;BME280;50709;52.648;4.764;2023-01-16T08:07:30;98498.78;;;7.46;78.38
64388;BME280;50709;52.648;4.764;2023-01-16T08:09:55;98492.50;;;7.56;77.51
64388;BME280;50709;52.648;4.764;2023-01-16T08:12:22;98494.50;;;7.04;76.32
64388;BME280;50709;52.648;4.764;2023-01-16T08:14:47;98477.91;;;6.69;75.47
64388;BME280;50709;52.648;4.764;2023-01-16T08:17:13;98463.31;;;7.05;75.99
64388;BME280;50709;52.648;4.764;2023-01-16T08:19:38;98466.66;;;7.11;77.62
64388;BME280;50709;52.648;4.764;2023-01-16T08:22:03;98449.78;;;6.91;77.09
64388;BME280;50709;52.648;4.764;2023-01-16T08:24:29;98451.09;;;6.70;77.22
64388;BME280;50709;52.648;4.764;2023-01-16T08:26:55;98451.56;;;7.28;76.87
64388;BME280;50709;52.648;4.764;2023-01-16T08:29:21;98439.00;;;7.10;76.94
64388;BME280;50709;52.648;4.764;2023-01-16T08:31:47;98429.13;;;6.86;77.10
64388;BME280;50709;52.648;4.764;2023-01-16T08:34:12;98427.94;;;7.01;76.92
64388;BME280;50709;52.648;4.764;2023-01-16T08:36:38;98388.00;;;6.69;77.58
64388;BME280;50709;52.648;4.764;2023-01-16T08:39:03;98412.34;;;7.01;76.12
64388;BME280;50709;52.648;4.764;2023-01-16T08:41:29;98400.81;;;6.76;76.81
64388;BME280;50709;52.648;4.764;2023-01-16T08:44:13;98397.53;;;7.06;77.94
64388;BME280;50709;52.648;4.764;2023-01-16T08:46:59;98400.84;;;6.74;77.71
64388;BME280;50709;52.648;4.764;2023-01-16T08:49:45;98390.00;;;6.55;78.82
64388;BME280;50709;52.648;4.764;2023-01-16T08:52:38;98387.00;;;6.75;78.79
64388;BME280;50709;52.648;4.764;2023-01-16T08:55:05;98400.16;;;6.23;77.91
64388;BME280;50709;52.648;4.764;2023-01-16T08:57:31;98396.97;;;6.09;77.97
64388;BME280;50709;52.648;4.764;2023-01-16T08:59:57;98341.31;;;5.82;76.92
64388;BME280;50709;52.648;4.764;2023-01-16T09:02:24;98379.03;;;6.42;77.68
64388;BME280;50709;52.648;4.764;2023-01-16T09:04:50;98372.53;;;5.74;78.17
64388;BME280;50709;52.648;4.764;2023-01-16T09:07:16;98349.94;;;6.29;76.96
64388;BME280;50709;52.648;4.764;2023-01-16T09:09:42;98361.94;;;6.74;77.60
64388;BME280;50709;52.648;4.764;2023-01-16T09:12:11;98353.59;;;6.60;77.57
64388;BME280;50709;52.648;4.764;2023-01-16T09:14:56;98348.88;;;6.38;77.70
64388;BME280;50709;52.648;4.764;2023-01-16T09:17:23;98331.59;;;5.93;77.00
64388;BME280;50709;52.648;4.764;2023-01-16T09:19:49;98327.94;;;7.22;78.15
64388;BME280;50709;52.648;4.764;2023-01-16T09:22:15;98331.31;;;6.51;76.89
64388;BME280;50709;52.648;4.764;2023-01-16T09:24:40;98325.06;;;6.60;77.44
64388;BME280;50709;52.648;4.764;2023-01-16T09:27:06;98290.13;;;6.38;77.52
64388;BME280;50709;52.648;4.764;2023-01-16T09:29:32;98309.09;;;5.97;77.60
64388;BME280;50709;52.648;4.764;2023-01-16T09:31:58;98305.34;;;7.61;79.78
64388;BME280;50709;52.648;4.764;2023-01-16T09:34:24;98266.47;;;7.57;78.09
64388;BME280;50709;52.648;4.764;2023-01-16T09:36:50;98302.81;;;6.51;76.63
64388;BME280;50709;52.648;4.764;2023-01-16T09:39:16;98286.41;;;6.49;78.40
64388;BME280;50709;52.648;4.764;2023-01-16T09:44:54;98280.47;;;6.44;76.84
64388;BME280;50709;52.648;4.764;2023-01-16T09:47:23;98272.13;;;7.04;78.81
64388;BME280;50709;52.648;4.764;2023-01-16T09:49:57;98261.88;;;7.00;77.89
64388;BME280;50709;52.648;4.764;2023-01-16T09:52:27;98279.03;;;7.40;78.50
64388;BME280;50709;52.648;4.764;2023-01-16T09:55:40;98263.50;;;7.04;77.38
64388;BME280;50709;52.648;4.764;2023-01-16T09:58:27;98250.00;;;7.57;78.15
64388;BME280;50709;52.648;4.764;2023-01-16T10:01:09;98259.66;;;7.19;76.90
64388;BME280;50709;52.648;4.764;2023-01-16T10:03:36;98244.28;;;6.77;76.47
64388;BME280;50709;52.648;4.764;2023-01-16T10:06:18;98245.47;;;7.32;78.12
64388;BME280;50709;52.648;4.764;2023-01-16T10:17:12;98206.31;;;7.07;77.70
64388;BME280;50709;52.648;4.764;2023-01-16T10:22:47;98211.22;;;6.49;77.49
64388;BME280;50709;52.648;4.764;2023-01-16T10:30:34;98191.91;;;6.61;78.35
64388;BME280;50709;52.648;4.764;2023-01-16T10:33:27;98167.34;;;6.41;77.79
64388;BME280;50709;52.648;4.764;2023-01-16T10:35:55;98169.03;;;6.42;77.75
64388;BME280;50709;52.648;4.764;2023-01-16T10:38:35;98160.31;;;6.45;77.12
64388;BME280;50709;52.648;4.764;2023-01-16T10:41:30;98157.94;;;6.71;76.55
64388;BME280;50709;52.648;4.764;2023-01-16T10:44:38;98129.81;;;6.89;78.92
64388;BME280;50709;52.648;4.764;2023-01-16T10:47:27;98134.78;;;6.64;77.96
64388;BME280;50709;52.648;4.764;2023-01-16T10:50:13;98119.84;;;7.06;79.63
64388;BME280;50709;52.648;4.764;2023-01-16T10:52:39;98121.19;;;6.88;77.40
64388;BME280;50709;52.648;4.764;2023-01-16T10:55:06;98116.16;;;7.14;78.70
64388;BME280;50709;52.648;4.764;2023-01-16T10:57:33;98122.47;;;7.66;78.14
64388;BME280;50709;52.648;4.764;2023-01-16T11:00:04;98115.97;;;7.21;77.35
64388;BME280;50709;52.648;4.764;2023-01-16T11:02:34;98125.41;;;6.93;78.11
64388;BME280;50709;52.648;4.764;2023-01-16T11:07:55;98095.69;;;6.71;78.88
64388;BME280;50709;52.648;4.764;2023-01-16T11:10:22;98085.47;;;6.98;79.58
64388;BME280;50709;52.648;4.764;2023-01-16T11:12:48;98082.63;;;6.74;78.56
64388;BME280;50709;52.648;4.764;2023-01-16T11:15:32;98036.19;;;6.65;78.35
64388;BME280;50709;52.648;4.764;2023-01-16T11:21:17;98064.72;;;7.28;78.99
64388;BME280;50709;52.648;4.764;2023-01-16T11:23:43;98041.25;;;6.70;78.99
64388;BME280;50709;52.648;4.764;2023-01-16T11:26:10;98044.53;;;6.77;77.49
64388;BME280;50709;52.648;4.764;2023-01-16T11:28:37;98051.53;;;7.04;79.40
64388;BME280;50709;52.648;4.764;2023-01-16T11:31:13;98038.19;;;6.87;78.21
64388;BME280;50709;52.648;4.764;2023-01-16T11:33:46;98038.88;;;6.94;78.49
64388;BME280;50709;52.648;4.764;2023-01-16T11:36:17;98030.34;;;7.20;79.63
64388;BME280;50709;52.648;4.764;2023-01-16T11:38:44;98029.88;;;7.37;77.73
64388;BME280;50709;52.648;4.764;2023-01-16T11:41:10;98033.47;;;7.31;78.29
64388;BME280;50709;52.648;4.764;2023-01-16T11:43:36;98013.53;;;6.72;78.80
64388;BME280;50709;52.648;4.764;2023-01-16T11:46:38;98018.47;;;7.13;78.73
64388;BME280;50709;52.648;4.764;2023-01-16T11:49:17;98012.03;;;7.24;77.66
64388;BME280;50709;52.648;4.764;2023-01-16T11:51:43;98013.38;;;7.08;77.80
64388;BME280;50709;52.648;4.764;2023-01-16T11:54:14;98003.13;;;7.33;76.73
64388;BME280;50709;52.648;4.764;2023-01-16T12:07:41;97978.72;;;7.11;75.97
64388;BME280;50709;52.648;4.764;2023-01-16T12:13:17;97972.50;;;7.71;76.68
64388;BME280;50709;52.648;4.764;2023-01-16T12:21:40;97967.97;;;7.78;77.14
64388;BME280;50709;52.648;4.764;2023-01-16T12:24:21;97965.56;;;8.24;77.54
64388;BME280;50709;52.648;4.764;2023-01-16T12:27:11;97958.91;;;8.17;77.88
64388;BME280;50709;52.648;4.764;2023-01-16T12:37:53;97948.06;;;7.77;74.63
64388;BME280;50709;52.648;4.764;2023-01-16T12:43:10;97921.56;;;8.19;76.41
64388;BME280;50709;52.648;4.764;2023-01-16T12:48:51;97893.34;;;7.56;75.50
64388;BME280;50709;52.648;4.764;2023-01-16T12:58:57;97895.59;;;8.18;76.27
64388;BME280;50709;52.648;4.764;2023-01-16T13:01:28;97900.03;;;8.39;75.38
64388;BME280;50709;52.648;4.764;2023-01-16T13:09:14;97879.84;;;8.48;75.86
64388;BME280;50709;52.648;4.764;2023-01-16T13:14:50;97888.28;;;8.77;74.78
64388;BME280;50709;52.648;4.764;2023-01-16T13:17:22;97872.47;;;8.83;73.68
64388;BME280;50709;52.648;4.764;2023-01-16T13:19:51;97872.75;;;8.97;74.98
64388;BME280;50709;52.648;4.764;2023-01-16T13:22:25;97868.00;;;9.08;74.74
64388;BME280;50709;52.648;4.764;2023-01-16T13:24:57;97835.59;;;9.16;75.70
64388;BME280;50709;52.648;4.764;2023-01-16T13:27:35;97864.06;;;8.74;73.56
64388;BME280;50709;52.648;4.764;2023-01-16T13:30:12;97871.72;;;8.55;74.76
64388;BME280;50709;52.648;4.764;2023-01-16T13:33:02;97851.53;;;8.62;74.39
64388;BME280;50709;52.648;4.764;2023-01-16T13:40:50;97858.81;;;9.42;74.97
64388;BME280;50709;52.648;4.764;2023-01-16T13:43:26;97852.00;;;9.18;74.50
64388;BME280;50709;52.648;4.764;2023-01-16T13:46:15;97859.41;;;9.27;75.10
64388;BME280;50709;52.648;4.764;2023-01-16T13:48:41;97846.53;;;9.24;75.01
64388;BME280;50709;52.648;4.764;2023-01-16T13:51:14;97852.16;;;9.35;74.84
64388;BME280;50709;52.648;4.764;2023-01-16T13:53:45;97853.16;;;9.53;74.34
64388;BME280;50709;52.648;4.764;2023-01-16T13:56:18;97814.53;;;9.63;74.83
64388;BME280;50709;52.648;4.764;2023-01-16T13:59:26;97826.91;;;9.99;72.77
64388;BME280;50709;52.648;4.764;2023-01-16T14:10:26;97815.03;;;10.32;73.31
64388;BME280;50709;52.648;4.764;2023-01-16T14:13:12;97829.13;;;10.27;73.36
64388;BME280;50709;52.648;4.764;2023-01-16T14:15:59;97829.22;;;10.05;73.49
64388;BME280;50709;52.648;4.764;2023-01-16T14:22:19;97792.44;;;9.92;73.91
64388;BME280;50709;52.648;4.764;2023-01-16T14:24:50;97836.94;;;10.27;74.36
64388;BME280;50709;52.648;4.764;2023-01-16T14:27:19;97829.66;;;10.36;73.36
64388;BME280;50709;52.648;4.764;2023-01-16T14:29:51;97833.97;;;10.56;71.84
64388;BME280;50709;52.648;4.764;2023-01-16T14:32:24;97825.66;;;10.48;72.31
64388;BME280;50709;52.648;4.764;2023-01-16T14:34:56;97820.63;;;10.43;73.06
64388;BME280;50709;52.648;4.764;2023-01-16T14:37:26;97830.75;;;10.30;73.79
64388;BME280;50709;52.648;4.764;2023-01-16T14:39:57;97833.19;;;10.14;73.05
64388;BME280;50709;52.648;4.764;2023-01-16T14:42:36;97816.63;;;9.96;73.92
64388;BME280;50709;52.648;4.764;2023-01-16T14:48:35;97837.09;;;10.24;71.64
64388;BME280;50709;52.648;4.764;2023-01-16T14:51:31;97821.75;;;9.98;73.01
64388;BME280;50709;52.648;4.764;2023-01-16T14:54:22;97831.72;;;10.08;73.41
64388;BME280;50709;52.648;4.764;2023-01-16T14:57:13;97829.94;;;10.09;73.33
64388;BME280;50709;52.648;4.764;2023-01-16T14:59:44;97823.81;;;10.10;74.13
64388;BME280;50709;52.648;4.764;2023-01-16T15:02:17;97826.69;;;10.04;73.97
64388;BME280;50709;52.648;4.764;2023-01-16T15:07:56;97828.31;;;10.06;73.56
64388;BME280;50709;52.648;4.764;2023-01-16T15:10:37;97833.94;;;9.97;74.29
64388;BME280;50709;52.648;4.764;2023-01-16T15:13:30;97830.63;;;9.93;74.05
64388;BME280;50709;52.648;4.764;2023-01-16T15:16:17;97800.38;;;9.69;73.99
64388;BME280;50709;52.648;4.764;2023-01-16T15:19:15;97781.56;;;9.83;74.37
64388;BME280;50709;52.648;4.764;2023-01-16T15:21:59;97811.66;;;9.90;73.60
64388;BME280;50709;52.648;4.764;2023-01-16T15:24:25;97829.31;;;10.23;73.74
64388;BME280;50709;52.648;4.764;2023-01-16T15:27:10;97828.31;;;10.06;74.24
64388;BME280;50709;52.648;4.764;2023-01-16T15:30:00;97822.81;;;9.93;73.90
64388;BME280;50709;52.648;4.764;2023-01-16T15:32:28;97820.78;;;10.00;74.21
64388;BME280;50709;52.648;4.764;2023-01-16T15:35:13;97813.38;;;10.50;73.64
64388;BME280;50709;52.648;4.764;2023-01-16T15:37:51;97815.09;;;10.30;71.46
64388;BME280;50709;52.648;4.764;2023-01-16T15:42:47;97825.59;;;10.29;72.57
64388;BME280;50709;52.648;4.764;2023-01-16T15:45:31;97829.69;;;10.34;73.14
64388;BME280;50709;52.648;4.764;2023-01-16T15:48:52;97809.50;;;10.39;71.65
64388;BME280;50709;52.648;4.764;2023-01-16T15:51:22;97829.38;;;10.21;71.73
64388;BME280;50709;52.648;4.764;2023-01-16T15:53:49;97826.56;;;10.07;72.61
64388;BME280;50709;52.648;4.764;2023-01-16T15:56:38;97827.53;;;10.04;72.36